ICE51R BIAR-BIKF
Flight info
| Callsign | ICE51R |
|---|---|
| Flight time | N/A |
| Altitude | 20000 |
| Route | ASKUR2A ASKUR DCT DEVUD DEVUD2H |
| Aircraft | DH8D/M-SDE2E3FGRY/H |
Departure
| Time | N/A |
|---|---|
| Airport | Akureyri International Airport (BIAR) |
Arrival
| Time | 2026-05-03 20:17 |
|---|---|
| Airport | Keflavik International Airport (BIKF) |
| Time | Latitude | Longitude | Altitude | Speed | Heading |
|---|---|---|---|---|---|
| 2026-05-03 20:15 | 63.98488 | -22.41756 | 1729 ft | 153 kts | 275° |
| 2026-05-03 20:15 | 63.98493 | -22.44151 | 1511 ft | 147 kts | 275° |
| 2026-05-03 20:15 | 63.98497 | -22.46398 | 1387 ft | 146 kts | 276° |
| 2026-05-03 20:15 | 63.98511 | -22.48828 | 1194 ft | 157 kts | 275° |
| 2026-05-03 20:16 | 63.98513 | -22.51332 | 1128 ft | 161 kts | 275° |
| 2026-05-03 20:16 | 63.98489 | -22.53869 | 907 ft | 160 kts | 273° |
| 2026-05-03 20:16 | 63.98493 | -22.56314 | 546 ft | 154 kts | 276° |
| 2026-05-03 20:16 | 63.98502 | -22.58651 | 289 ft | 141 kts | 274° |
| 2026-05-03 20:17 | 63.98503 | -22.60699 | 172 ft | 115 kts | 269° |
| 2026-05-03 20:17 | 63.98505 | -22.62125 | 147 ft | 76 kts | 271° |
| 2026-05-03 20:17 | 63.98505 | -22.63136 | 136 ft | 53 kts | 271° |
| 2026-05-03 20:17 | 63.98562 | -22.63846 | 130 ft | 38 kts | 298° |
| 2026-05-03 20:18 | 63.98690 | -22.64158 | 126 ft | 23 kts | 355° |
| 2026-05-03 20:18 | 63.98788 | -22.64163 | 126 ft | 0 kts | 358° |
| 2026-05-03 20:18 | 63.98843 | -22.64123 | 126 ft | 20 kts | 49° |
| 2026-05-03 20:18 | 63.98855 | -22.63745 | 130 ft | 24 kts | 90° |
| 2026-05-03 20:19 | 63.98856 | -22.63366 | 135 ft | 23 kts | 90° |
| 2026-05-03 20:19 | 63.98855 | -22.62992 | 139 ft | 23 kts | 88° |
| 2026-05-03 20:19 | 63.98957 | -22.62838 | 140 ft | 17 kts | 18° |
| 2026-05-03 20:19 | 63.99073 | -22.62756 | 142 ft | 18 kts | 17° |
| 2026-05-03 20:20 | 63.99171 | -22.62643 | 144 ft | 14 kts | 77° |
| 2026-05-03 20:20 | 63.99173 | -22.62435 | 146 ft | 12 kts | 89° |
| 2026-05-03 20:20 | 63.99213 | -22.62318 | 147 ft | 9 kts | 16° |
| 2026-05-03 20:20 | 63.99265 | -22.62314 | 147 ft | 5 kts | 0° |
| 2026-05-03 20:21 | 63.99280 | -22.62314 | 147 ft | 0 kts | 360° |